Time;durP1;ratioP1;P1;durP2;ratioP2;P2;SDS_P1;SDS_P2;PMS_P1;PMS_P2;Temp;Humidity;BMP_temperature;BMP_pressure;BME280_temperature;BME280_humidity;BME280_pressure;Samples;Min_cycle;Max_cycle;Signal;HPM_P1;HPM_P2
2021/06/08 00:01:31;;;;;;;;;;;28.30;90.50;;;;;;5107330;28;19908;-49
2021/06/08 00:03:57;;;;;;;;;;;28.20;90.40;;;;;;5107416;28;20153;-51
2021/06/08 00:06:23;;;;;;;;;;;28.20;90.30;;;;;;5107484;28;20185;-48
2021/06/08 00:08:49;;;;;;;;;;;28.20;90.30;;;;;;5107404;28;19907;-48
2021/06/08 00:11:17;;;;;;;;;;;28.20;90.30;;;;;;5107255;28;20185;-46
2021/06/08 00:13:43;;;;;;;;;;;28.20;90.20;;;;;;5107134;28;19941;-55
2021/06/08 00:16:09;;;;;;;;;;;28.20;90.20;;;;;;5107066;28;20234;-49
2021/06/08 00:18:36;;;;;;;;;;;28.20;90.10;;;;;;5107348;28;19971;-49
2021/06/08 00:21:02;;;;;;;;;;;28.20;90.20;;;;;;5107173;28;20069;-48
2021/06/08 00:23:28;;;;;;;;;;;28.20;90.00;;;;;;5103279;28;19908;-49
2021/06/08 00:25:54;;;;;;;;;;;28.10;89.70;;;;;;5082671;28;19904;-47
2021/06/08 00:28:20;;;;;;;;;;;28.10;89.40;;;;;;5100934;28;19912;-48
2021/06/08 00:30:47;;;;;;;;;;;28.00;89.60;;;;;;5106844;28;19900;-46
2021/06/08 00:33:13;;;;;;;;;;;28.00;89.70;;;;;;5107220;28;19912;-53
2021/06/08 00:35:39;;;;;;;;;;;28.10;89.90;;;;;;5106871;28;19967;-53
2021/06/08 00:38:05;;;;;;;;;;;28.00;89.90;;;;;;5101182;28;19908;-51
2021/06/08 00:40:31;;;;;;;;;;;28.00;89.60;;;;;;5089015;28;19907;-50
2021/06/08 00:42:58;;;;;;;;;;;27.90;89.60;;;;;;5094323;28;19931;-46
2021/06/08 00:45:24;;;;;;;;;;;27.90;90.00;;;;;;5091896;28;19946;-48
2021/06/08 00:47:51;;;;;;;;;;;27.90;90.00;;;;;;5086644;28;20173;-47
2021/06/08 00:50:17;;;;;;;;;;;27.90;89.40;;;;;;5099935;28;19908;-48
2021/06/08 00:52:44;;;;;;;;;;;27.90;89.30;;;;;;5079328;28;20108;-47
2021/06/08 00:55:11;;;;;;;;;;;27.90;89.40;;;;;;5091437;28;19913;-49
2021/06/08 00:57:38;;;;;;;;;;;28.00;89.30;;;;;;5086183;28;19958;-50
2021/06/08 01:00:05;;;;;;;;;;;28.00;89.20;;;;;;5086157;28;19901;-46
2021/06/08 01:02:32;;;;;;;;;;;28.00;89.00;;;;;;5086290;28;19908;-53
2021/06/08 01:05:00;;;;;;;;;;;27.90;88.90;;;;;;5086241;28;19907;-49
2021/06/08 01:07:26;;;;;;;;;;;28.00;89.00;;;;;;5086510;28;19908;-53
2021/06/08 01:09:55;;;;;;;;;;;28.00;88.70;;;;;;5086112;28;20185;-48
2021/06/08 01:12:22;;;;;;;;;;;28.00;88.50;;;;;;5086057;28;19916;-53
2021/06/08 01:14:48;;;;;;;;;;;27.90;88.10;;;;;;5085800;28;19971;-56
2021/06/08 01:17:14;;;;;;;;;;;27.90;87.50;;;;;;5089888;28;19908;-53
2021/06/08 01:19:40;;;;;;;;;;;27.90;87.40;;;;;;5089205;28;19912;-54
2021/06/08 01:22:07;;;;;;;;;;;27.90;87.00;;;;;;5092569;28;19912;-58
2021/06/08 01:24:33;;;;;;;;;;;27.90;86.90;;;;;;5086189;28;19900;-48
2021/06/08 01:27:00;;;;;;;;;;;27.90;86.80;;;;;;5084625;28;20105;-47
2021/06/08 01:29:27;;;;;;;;;;;27.80;86.70;;;;;;5085409;28;19935;-51
2021/06/08 01:31:58;;;;;;;;;;;27.80;87.00;;;;;;5085462;28;19912;-54
2021/06/08 01:34:25;;;;;;;;;;;27.80;86.70;;;;;;5085871;28;19945;-46
2021/06/08 01:36:52;;;;;;;;;;;27.80;86.90;;;;;;5084755;28;19975;-47
2021/06/08 01:39:18;;;;;;;;;;;27.80;86.80;;;;;;5085409;28;19942;-48
2021/06/08 01:41:44;;;;;;;;;;;27.80;86.80;;;;;;5085600;28;19904;-46
2021/06/08 01:44:13;;;;;;;;;;;27.80;87.00;;;;;;5085381;28;19932;-50
2021/06/08 01:46:40;;;;;;;;;;;27.80;87.10;;;;;;5084164;28;19966;-49
2021/06/08 01:49:06;;;;;;;;;;;27.80;87.10;;;;;;5086020;28;19904;-54
2021/06/08 01:51:32;;;;;;;;;;;27.80;86.60;;;;;;5067317;28;20075;-52
2021/06/08 01:54:18;;;;;;;;;;;27.80;86.70;;;;;;5085196;28;19907;-50
2021/06/08 01:56:47;;;;;;;;;;;27.70;86.90;;;;;;5054267;28;19912;-49
2021/06/08 01:59:25;;;;;;;;;;;27.70;87.10;;;;;;5085279;28;19901;-50
2021/06/08 02:02:05;;;;;;;;;;;27.70;87.10;;;;;;5085175;28;19954;-48
2021/06/08 02:04:36;;;;;;;;;;;27.70;87.20;;;;;;5084741;28;19901;-50
2021/06/08 02:07:25;;;;;;;;;;;27.70;87.30;;;;;;5085176;28;19909;-46
2021/06/08 02:09:56;;;;;;;;;;;27.60;87.60;;;;;;5084694;28;19907;-48
2021/06/08 02:12:22;;;;;;;;;;;27.60;87.90;;;;;;5085039;28;20115;-47
2021/06/08 02:14:52;;;;;;;;;;;27.60;88.00;;;;;;5084617;28;19904;-43
2021/06/08 02:17:23;;;;;;;;;;;27.60;88.00;;;;;;5084341;28;19908;-44
2021/06/08 02:19:51;;;;;;;;;;;27.60;88.00;;;;;;5084707;28;19998;-47
2021/06/08 02:22:20;;;;;;;;;;;27.60;88.30;;;;;;5084633;28;20017;-52
2021/06/08 02:24:47;;;;;;;;;;;27.50;88.70;;;;;;5084744;28;19905;-46
2021/06/08 02:27:14;;;;;;;;;;;27.50;88.50;;;;;;5084589;28;20232;-44
2021/06/08 02:29:43;;;;;;;;;;;27.50;88.40;;;;;;5084782;28;19900;-49
2021/06/08 02:32:09;;;;;;;;;;;27.50;88.30;;;;;;5066344;28;19919;-53
2021/06/08 02:34:35;;;;;;;;;;;27.50;88.30;;;;;;5084495;28;20181;-47
2021/06/08 02:37:02;;;;;;;;;;;27.50;88.10;;;;;;5084286;28;19915;-49
2021/06/08 02:39:29;;;;;;;;;;;27.50;88.30;;;;;;5084154;28;19937;-43
2021/06/08 02:41:56;;;;;;;;;;;27.50;88.40;;;;;;5084148;28;19978;-45
2021/06/08 02:44:23;;;;;;;;;;;27.50;88.40;;;;;;5084211;28;19971;-53
2021/06/08 02:46:51;;;;;;;;;;;27.50;88.70;;;;;;5084305;28;19979;-50
2021/06/08 02:49:18;;;;;;;;;;;27.50;88.70;;;;;;5084255;28;20189;-51
2021/06/08 02:51:45;;;;;;;;;;;27.50;88.60;;;;;;5083961;28;19922;-50
2021/06/08 02:54:12;;;;;;;;;;;27.50;88.70;;;;;;5083497;28;19900;-46
2021/06/08 02:56:39;;;;;;;;;;;27.40;88.80;;;;;;5084072;28;20209;-45
2021/06/08 02:59:06;;;;;;;;;;;27.40;88.40;;;;;;5094270;28;20193;-46
2021/06/08 03:01:33;;;;;;;;;;;27.40;88.70;;;;;;5104209;28;19908;-42
2021/06/08 03:04:01;;;;;;;;;;;27.40;88.60;;;;;;5104335;28;19900;-45
2021/06/08 03:06:29;;;;;;;;;;;27.40;88.70;;;;;;5104268;28;19915;-45
2021/06/08 03:08:56;;;;;;;;;;;27.40;88.50;;;;;;5103772;28;20207;-48
2021/06/08 03:11:28;;;;;;;;;;;27.30;88.60;;;;;;5104102;28;19920;-45
2021/06/08 03:13:55;;;;;;;;;;;27.30;88.40;;;;;;5104196;28;19904;-45
2021/06/08 03:16:23;;;;;;;;;;;27.30;89.00;;;;;;5103984;28;19900;-48
2021/06/08 03:18:51;;;;;;;;;;;27.20;89.50;;;;;;5104176;28;19900;-50
2021/06/08 03:21:38;;;;;;;;;;;27.20;90.00;;;;;;5103992;28;19904;-44
2021/06/08 03:24:06;;;;;;;;;;;27.20;90.10;;;;;;5103015;28;20000;-50
2021/06/08 03:26:36;;;;;;;;;;;27.20;89.80;;;;;;5104369;28;19908;-43
2021/06/08 03:29:05;;;;;;;;;;;27.30;89.90;;;;;;5103135;28;19914;-41
2021/06/08 03:31:32;;;;;;;;;;;27.30;89.70;;;;;;5103805;28;19908;-42
2021/06/08 03:33:59;;;;;;;;;;;27.30;89.60;;;;;;5095757;28;20009;-41
2021/06/08 03:36:28;;;;;;;;;;;27.30;89.60;;;;;;5090575;28;19908;-40
2021/06/08 03:38:54;;;;;;;;;;;27.30;89.60;;;;;;5086837;28;19905;-41
2021/06/08 03:41:21;;;;;;;;;;;27.30;89.00;;;;;;5083425;28;19978;-47
2021/06/08 03:43:48;;;;;;;;;;;27.30;89.20;;;;;;5083662;28;19904;-47
2021/06/08 03:46:15;;;;;;;;;;;27.20;89.20;;;;;;5083791;28;19931;-43
2021/06/08 03:48:42;;;;;;;;;;;27.20;89.10;;;;;;5083483;28;19905;-44
2021/06/08 03:51:09;;;;;;;;;;;27.20;89.10;;;;;;5083571;28;19908;-41
2021/06/08 03:53:38;;;;;;;;;;;27.20;89.00;;;;;;5101188;28;19957;-41
2021/06/08 03:56:04;;;;;;;;;;;27.20;89.00;;;;;;5103691;28;19945;-46
2021/06/08 03:58:32;;;;;;;;;;;27.20;88.80;;;;;;5103999;28;19939;-39
2021/06/08 04:00:58;;;;;;;;;;;27.30;88.80;;;;;;5106746;28;19900;-40
2021/06/08 04:03:26;;;;;;;;;;;27.30;88.90;;;;;;5107924;28;19908;-39
2021/06/08 04:05:53;;;;;;;;;;;27.20;88.80;;;;;;5089479;28;19904;-44
2021/06/08 04:08:19;;;;;;;;;;;27.20;88.70;;;;;;5107964;28;20172;-40
2021/06/08 04:10:46;;;;;;;;;;;27.30;88.80;;;;;;5107331;28;20108;-41
2021/06/08 04:13:12;;;;;;;;;;;27.20;89.00;;;;;;5107730;28;19966;-41
2021/06/08 04:15:38;;;;;;;;;;;27.20;89.00;;;;;;5107264;28;19900;-42
2021/06/08 04:18:08;;;;;;;;;;;27.30;88.90;;;;;;5107580;28;19931;-42
2021/06/08 04:20:34;;;;;;;;;;;27.20;89.00;;;;;;5107131;28;19900;-44
2021/06/08 04:23:01;;;;;;;;;;;27.20;88.80;;;;;;5107504;28;19908;-42
2021/06/08 04:25:28;;;;;;;;;;;27.20;88.70;;;;;;5106951;28;19900;-43
2021/06/08 04:27:54;;;;;;;;;;;27.20;88.90;;;;;;5107324;28;19931;-43
2021/06/08 04:30:21;;;;;;;;;;;27.20;88.60;;;;;;5106926;28;20223;-40
2021/06/08 04:32:48;;;;;;;;;;;27.20;88.70;;;;;;5107160;28;20189;-44
2021/06/08 04:35:15;;;;;;;;;;;27.20;88.40;;;;;;5106863;28;19935;-50
2021/06/08 04:37:41;;;;;;;;;;;27.10;88.30;;;;;;5106927;28;19908;-41
2021/06/08 04:40:08;;;;;;;;;;;27.20;88.30;;;;;;5106584;28;20245;-42
2021/06/08 04:42:48;;;;;;;;;;;27.10;88.30;;;;;;5106627;28;19943;-48
2021/06/08 04:45:15;;;;;;;;;;;27.20;88.40;;;;;;5106624;28;19961;-44
2021/06/08 04:47:42;;;;;;;;;;;27.10;88.30;;;;;;5106987;28;19920;-43
2021/06/08 04:50:10;;;;;;;;;;;27.10;88.30;;;;;;5106764;28;19931;-41
2021/06/08 04:52:37;;;;;;;;;;;27.10;88.30;;;;;;5106306;28;19916;-41
2021/06/08 04:55:04;;;;;;;;;;;27.10;88.20;;;;;;5106424;28;19900;-41
2021/06/08 04:57:30;;;;;;;;;;;27.10;88.10;;;;;;5106579;28;19935;-43
2021/06/08 05:00:02;;;;;;;;;;;27.10;88.10;;;;;;5106469;28;19963;-46
2021/06/08 05:02:31;;;;;;;;;;;27.10;88.30;;;;;;5106551;28;19908;-42
2021/06/08 05:05:01;;;;;;;;;;;27.10;88.50;;;;;;5106486;28;20088;-42
2021/06/08 05:07:29;;;;;;;;;;;27.10;88.50;;;;;;5106531;28;19940;-43
2021/06/08 05:09:58;;;;;;;;;;;27.10;88.40;;;;;;5088227;28;19939;-40
2021/06/08 05:12:24;;;;;;;;;;;27.10;88.40;;;;;;5106587;28;19983;-44
2021/06/08 05:14:52;;;;;;;;;;;27.00;88.50;;;;;;5106493;28;19900;-46
2021/06/08 05:17:19;;;;;;;;;;;27.00;88.30;;;;;;5106509;28;20121;-44
2021/06/08 05:19:49;;;;;;;;;;;27.00;88.70;;;;;;5106402;28;19973;-40
2021/06/08 05:22:19;;;;;;;;;;;27.00;89.00;;;;;;5106773;28;19908;-40
2021/06/08 05:24:49;;;;;;;;;;;27.00;89.00;;;;;;5106165;28;19906;-46
2021/06/08 05:27:16;;;;;;;;;;;27.00;88.80;;;;;;5071561;28;20129;-45
2021/06/08 05:29:42;;;;;;;;;;;27.00;88.90;;;;;;5106500;28;19923;-42
2021/06/08 05:32:08;;;;;;;;;;;27.00;88.90;;;;;;5105957;28;19919;-43
2021/06/08 05:34:34;;;;;;;;;;;27.00;89.00;;;;;;5105754;28;19900;-48
2021/06/08 05:37:07;;;;;;;;;;;26.90;89.00;;;;;;5105954;28;19908;-41
2021/06/08 05:39:37;;;;;;;;;;;27.00;89.00;;;;;;5106415;28;19907;-42
2021/06/08 05:42:03;;;;;;;;;;;26.90;88.50;;;;;;5105902;28;19911;-43
2021/06/08 05:44:30;;;;;;;;;;;26.90;88.30;;;;;;5105659;28;19899;-44
2021/06/08 05:46:56;;;;;;;;;;;27.00;88.00;;;;;;5105934;28;19915;-41
2021/06/08 05:49:22;;;;;;;;;;;26.90;87.70;;;;;;5105488;28;19900;-45
2021/06/08 05:51:48;;;;;;;;;;;26.90;87.40;;;;;;5105387;28;19916;-42
2021/06/08 05:54:15;;;;;;;;;;;27.00;87.50;;;;;;5105664;28;19916;-45
2021/06/08 05:56:42;;;;;;;;;;;26.90;87.40;;;;;;5105688;28;19907;-46
2021/06/08 05:59:08;;;;;;;;;;;26.90;87.20;;;;;;5105647;28;19942;-42
2021/06/08 06:01:35;;;;;;;;;;;26.90;86.90;;;;;;5105256;28;20079;-40
2021/06/08 06:04:01;;;;;;;;;;;26.90;86.90;;;;;;5105432;28;19904;-43
2021/06/08 06:06:28;;;;;;;;;;;26.90;86.60;;;;;;5105268;28;19912;-45
2021/06/08 06:08:55;;;;;;;;;;;26.90;86.20;;;;;;5105367;28;19900;-42
2021/06/08 06:11:21;;;;;;;;;;;27.00;86.10;;;;;;5105578;28;19923;-46
2021/06/08 06:13:48;;;;;;;;;;;26.90;85.90;;;;;;5104940;28;20259;-40
2021/06/08 06:16:18;;;;;;;;;;;26.90;85.80;;;;;;5105613;28;19900;-44
2021/06/08 06:18:45;;;;;;;;;;;26.90;85.70;;;;;;5105196;28;19945;-47
2021/06/08 06:21:11;;;;;;;;;;;26.90;85.40;;;;;;5105223;28;19904;-48
2021/06/08 06:23:38;;;;;;;;;;;26.90;85.50;;;;;;5105176;28;19900;-46
2021/06/08 06:26:05;;;;;;;;;;;26.90;85.80;;;;;;5105152;28;19979;-40
2021/06/08 06:28:32;;;;;;;;;;;26.90;85.80;;;;;;5105181;28;19900;-43
2021/06/08 06:30:58;;;;;;;;;;;26.90;86.50;;;;;;5104807;28;19945;-42
2021/06/08 06:33:24;;;;;;;;;;;26.90;86.80;;;;;;5105159;28;19979;-41
2021/06/08 06:35:50;;;;;;;;;;;26.90;87.00;;;;;;5105285;28;19900;-42
2021/06/08 06:38:18;;;;;;;;;;;26.90;87.50;;;;;;5105446;28;19918;-42
2021/06/08 06:40:45;;;;;;;;;;;26.90;88.20;;;;;;5104839;28;19903;-45
2021/06/08 06:43:15;;;;;;;;;;;26.90;88.50;;;;;;5105110;28;19986;-43
2021/06/08 06:45:42;;;;;;;;;;;26.90;88.80;;;;;;5104499;28;19900;-40
2021/06/08 06:48:12;;;;;;;;;;;26.90;89.30;;;;;;5105081;28;20108;-43
2021/06/08 06:50:39;;;;;;;;;;;26.90;89.80;;;;;;5104566;28;20135;-40
2021/06/08 06:53:06;;;;;;;;;;;26.90;90.10;;;;;;5104277;28;19961;-42
2021/06/08 06:55:33;;;;;;;;;;;26.90;90.70;;;;;;5104844;28;19900;-42
2021/06/08 06:58:00;;;;;;;;;;;26.90;90.70;;;;;;5104920;28;19908;-43
2021/06/08 07:00:27;;;;;;;;;;;26.90;90.70;;;;;;5104837;28;19900;-40
2021/06/08 07:02:54;;;;;;;;;;;26.80;90.90;;;;;;5105146;28;19914;-43
2021/06/08 07:05:22;;;;;;;;;;;26.80;90.90;;;;;;5104894;28;19900;-42
2021/06/08 07:07:49;;;;;;;;;;;26.80;91.10;;;;;;5104884;28;19908;-40
2021/06/08 07:10:16;;;;;;;;;;;26.80;91.20;;;;;;5104879;28;19967;-44
2021/06/08 07:12:44;;;;;;;;;;;26.70;91.30;;;;;;5104314;28;19951;-41
2021/06/08 07:15:11;;;;;;;;;;;26.70;91.40;;;;;;5104599;28;19900;-41
2021/06/08 07:17:38;;;;;;;;;;;26.70;91.40;;;;;;5104356;28;20096;-43
2021/06/08 07:20:05;;;;;;;;;;;26.70;91.50;;;;;;5104834;28;19907;-45
2021/06/08 07:22:32;;;;;;;;;;;26.70;91.50;;;;;;5105157;28;19908;-41
2021/06/08 07:24:59;;;;;;;;;;;26.60;91.50;;;;;;5104430;28;20233;-42
2021/06/08 07:27:25;;;;;;;;;;;26.60;91.50;;;;;;5104896;28;19908;-45
2021/06/08 07:29:52;;;;;;;;;;;26.60;91.60;;;;;;5104224;28;19900;-41
2021/06/08 07:32:22;;;;;;;;;;;26.60;91.60;;;;;;5104419;28;19949;-45
2021/06/08 07:34:50;;;;;;;;;;;26.60;91.70;;;;;;5106000;28;20150;-44
2021/06/08 07:37:19;;;;;;;;;;;26.60;91.70;;;;;;5108564;28;19915;-46
2021/06/08 07:39:49;;;;;;;;;;;26.60;91.80;;;;;;5108688;28;19968;-46
2021/06/08 07:42:44;;;;;;;;;;;26.50;91.80;;;;;;5108717;28;20176;-46
2021/06/08 07:45:18;;;;;;;;;;;26.50;92.00;;;;;;5091286;28;19907;-44
2021/06/08 07:47:46;;;;;;;;;;;26.50;92.10;;;;;;5108241;28;19930;-42
2021/06/08 07:50:13;;;;;;;;;;;26.50;92.10;;;;;;5108507;28;19900;-43
2021/06/08 07:52:39;;;;;;;;;;;26.50;92.10;;;;;;5108067;28;19923;-45
2021/06/08 07:55:06;;;;;;;;;;;26.50;92.10;;;;;;5107743;28;20188;-42
2021/06/08 07:57:32;;;;;;;;;;;26.50;92.00;;;;;;5107757;28;19988;-48
2021/06/08 07:59:59;;;;;;;;;;;26.40;92.00;;;;;;5108252;28;19942;-47
2021/06/08 08:02:25;;;;;;;;;;;26.40;92.00;;;;;;5107932;28;19950;-41
2021/06/08 08:04:52;;;;;;;;;;;26.40;91.90;;;;;;5107812;28;19900;-48
2021/06/08 08:07:20;;;;;;;;;;;26.40;91.90;;;;;;5107939;28;19915;-46
2021/06/08 08:09:46;;;;;;;;;;;26.40;92.00;;;;;;5107479;28;19941;-42
2021/06/08 08:12:13;;;;;;;;;;;26.40;92.00;;;;;;5107938;28;19958;-44
2021/06/08 08:14:40;;;;;;;;;;;26.40;92.10;;;;;;5107549;28;19942;-45
2021/06/08 08:17:06;;;;;;;;;;;26.40;91.90;;;;;;5107317;28;19946;-44
2021/06/08 08:19:32;;;;;;;;;;;26.30;91.80;;;;;;5107896;28;19907;-43
2021/06/08 08:21:59;;;;;;;;;;;26.40;92.10;;;;;;5107817;28;19908;-45
2021/06/08 08:24:25;;;;;;;;;;;26.30;91.70;;;;;;5107747;28;19900;-40
2021/06/08 08:26:51;;;;;;;;;;;26.30;91.70;;;;;;5107546;28;20158;-41
2021/06/08 08:29:17;;;;;;;;;;;26.30;91.70;;;;;;5107323;28;20188;-44
2021/06/08 08:31:44;;;;;;;;;;;26.30;91.70;;;;;;5107407;28;20181;-45
2021/06/08 08:34:10;;;;;;;;;;;26.30;91.60;;;;;;5106980;28;19963;-43
2021/06/08 08:36:39;;;;;;;;;;;26.40;91.50;;;;;;5107109;28;19915;-40
2021/06/08 08:39:07;;;;;;;;;;;26.40;91.40;;;;;;5107200;28;19958;-43
2021/06/08 08:41:33;;;;;;;;;;;26.30;91.30;;;;;;5106983;28;19908;-44
2021/06/08 08:44:00;;;;;;;;;;;26.40;91.20;;;;;;5107174;28;20089;-43
2021/06/08 08:46:26;;;;;;;;;;;26.40;91.20;;;;;;5106800;28;19916;-45
2021/06/08 08:48:54;;;;;;;;;;;26.40;91.10;;;;;;5107095;28;19903;-46
2021/06/08 08:51:21;;;;;;;;;;;26.40;91.00;;;;;;5106866;28;19904;-42
2021/06/08 08:53:50;;;;;;;;;;;26.30;90.80;;;;;;5106801;28;19979;-42
2021/06/08 08:56:16;;;;;;;;;;;26.30;90.80;;;;;;5106584;28;20093;-42
2021/06/08 08:58:45;;;;;;;;;;;26.30;90.70;;;;;;5107181;28;19904;-41
2021/06/08 09:01:11;;;;;;;;;;;26.30;90.70;;;;;;5106900;28;19904;-41
2021/06/08 09:03:38;;;;;;;;;;;26.40;90.80;;;;;;5106896;28;19962;-42
2021/06/08 09:06:05;;;;;;;;;;;26.30;90.70;;;;;;5106688;28;19899;-42
2021/06/08 09:08:31;;;;;;;;;;;26.30;90.70;;;;;;5106364;28;19903;-41
2021/06/08 09:11:00;;;;;;;;;;;26.40;90.80;;;;;;5106546;28;20185;-41
2021/06/08 09:13:27;;;;;;;;;;;26.30;90.70;;;;;;5106296;28;19908;-42
2021/06/08 09:15:54;;;;;;;;;;;26.30;90.70;;;;;;5107038;28;19950;-42
2021/06/08 09:18:23;;;;;;;;;;;26.30;90.70;;;;;;5107333;28;19904;-45
2021/06/08 09:20:50;;;;;;;;;;;26.30;90.80;;;;;;5106076;28;19911;-43
2021/06/08 09:23:23;;;;;;;;;;;26.30;90.80;;;;;;5106630;28;19927;-44
2021/06/08 09:25:51;;;;;;;;;;;26.30;90.80;;;;;;5106220;28;19912;-46
2021/06/08 09:28:20;;;;;;;;;;;26.30;90.90;;;;;;5106546;28;19904;-42
2021/06/08 09:31:06;;;;;;;;;;;26.30;90.90;;;;;;5106321;28;19966;-41
2021/06/08 09:33:46;;;;;;;;;;;26.30;91.00;;;;;;5105759;28;19919;-44
2021/06/08 09:36:20;;;;;;;;;;;26.30;91.00;;;;;;5105703;28;19963;-43
2021/06/08 09:38:48;;;;;;;;;;;26.30;91.00;;;;;;5105675;28;19903;-46
2021/06/08 09:41:15;;;;;;;;;;;26.30;91.00;;;;;;5105684;28;19907;-41
2021/06/08 09:43:48;;;;;;;;;;;26.30;91.00;;;;;;5106438;28;20107;-44
2021/06/08 09:46:14;;;;;;;;;;;26.20;90.90;;;;;;5105984;28;19907;-46
2021/06/08 09:48:50;;;;;;;;;;;26.20;90.90;;;;;;5106106;28;19912;-42
2021/06/08 09:51:16;;;;;;;;;;;26.20;90.80;;;;;;5105502;28;19900;-41
2021/06/08 09:53:43;;;;;;;;;;;26.20;90.70;;;;;;5105854;28;20088;-43
2021/06/08 09:56:10;;;;;;;;;;;26.20;90.70;;;;;;5105210;28;20100;-42
2021/06/08 09:58:38;;;;;;;;;;;26.20;90.60;;;;;;5104787;28;19900;-44
2021/06/08 10:01:13;;;;;;;;;;;26.20;90.50;;;;;;5105645;28;20141;-41
2021/06/08 10:03:44;;;;;;;;;;;26.20;90.50;;;;;;5105825;28;19900;-44
2021/06/08 10:06:12;;;;;;;;;;;26.20;90.40;;;;;;5105432;28;19964;-48
2021/06/08 10:08:38;;;;;;;;;;;26.20;90.40;;;;;;5105205;28;19900;-45
2021/06/08 10:11:14;;;;;;;;;;;26.20;90.30;;;;;;5105463;28;19915;-45
2021/06/08 10:13:40;;;;;;;;;;;26.20;90.30;;;;;;5105516;28;19904;-41
2021/06/08 10:16:12;;;;;;;;;;;26.20;90.30;;;;;;5105189;28;19899;-46
2021/06/08 10:18:51;;;;;;;;;;;26.20;90.30;;;;;;5105519;28;19900;-44
2021/06/08 10:21:32;;;;;;;;;;;26.20;90.30;;;;;;5105148;28;19900;-42
2021/06/08 10:24:08;;;;;;;;;;;26.20;90.30;;;;;;5105335;28;19907;-43
2021/06/08 10:26:36;;;;;;;;;;;26.10;90.30;;;;;;5105509;28;19915;-41
2021/06/08 10:29:06;;;;;;;;;;;26.20;90.40;;;;;;5105017;28;19900;-45
2021/06/08 10:31:33;;;;;;;;;;;26.20;90.30;;;;;;5105028;28;19971;-48
2021/06/08 10:34:00;;;;;;;;;;;26.20;90.40;;;;;;5105170;28;20047;-54
2021/06/08 10:36:26;;;;;;;;;;;26.20;90.40;;;;;;5104859;28;19908;-43
2021/06/08 10:38:53;;;;;;;;;;;26.20;90.50;;;;;;5105032;28;20152;-45
2021/06/08 10:41:19;;;;;;;;;;;26.10;90.40;;;;;;5104481;28;19915;-50
2021/06/08 10:43:45;;;;;;;;;;;26.20;90.50;;;;;;5104674;28;19933;-49
2021/06/08 10:46:22;;;;;;;;;;;26.20;90.50;;;;;;5105080;28;19959;-42
2021/06/08 10:48:49;;;;;;;;;;;26.20;90.50;;;;;;5104799;28;19900;-48
2021/06/08 10:51:20;;;;;;;;;;;26.20;90.50;;;;;;5104470;28;19900;-45
2021/06/08 10:53:51;;;;;;;;;;;26.20;90.40;;;;;;5105017;28;19904;-47
2021/06/08 10:56:36;;;;;;;;;;;26.10;90.40;;;;;;5104333;28;20185;-47
2021/06/08 10:59:03;;;;;;;;;;;26.10;90.40;;;;;;5104644;28;19928;-46
2021/06/08 11:01:30;;;;;;;;;;;26.10;90.40;;;;;;5104836;28;19908;-49
2021/06/08 11:03:56;;;;;;;;;;;26.10;90.40;;;;;;5105030;28;19928;-47
2021/06/08 11:06:45;;;;;;;;;;;26.20;90.40;;;;;;5104395;28;19983;-44
2021/06/08 11:09:14;;;;;;;;;;;26.10;90.30;;;;;;5106606;28;20074;-45
2021/06/08 11:11:58;;;;;;;;;;;26.20;90.30;;;;;;5108749;28;19935;-47
2021/06/08 11:14:39;;;;;;;;;;;26.10;90.20;;;;;;5108507;28;19907;-40
2021/06/08 11:17:10;;;;;;;;;;;26.10;90.20;;;;;;5108451;28;20279;-42
2021/06/08 11:19:56;;;;;;;;;;;26.10;90.20;;;;;;5108513;28;19904;-42
2021/06/08 11:22:43;;;;;;;;;;;26.10;90.10;;;;;;5108581;28;19982;-44
2021/06/08 11:25:27;;;;;;;;;;;26.10;90.10;;;;;;5094853;28;20234;-41
2021/06/08 11:27:57;;;;;;;;;;;26.10;90.10;;;;;;5108740;28;19938;-44
2021/06/08 11:30:25;;;;;;;;;;;26.10;90.00;;;;;;5108480;28;19973;-45
2021/06/08 11:32:51;;;;;;;;;;;26.10;90.10;;;;;;5108363;28;20259;-42
2021/06/08 11:35:29;;;;;;;;;;;26.10;90.00;;;;;;5108379;28;20111;-44
2021/06/08 11:37:58;;;;;;;;;;;26.10;90.00;;;;;;5108868;28;19908;-45
2021/06/08 11:40:27;;;;;;;;;;;26.10;90.00;;;;;;5108325;28;19900;-44
2021/06/08 11:42:53;;;;;;;;;;;26.10;90.10;;;;;;5108604;28;19934;-47
2021/06/08 11:45:26;;;;;;;;;;;26.10;90.20;;;;;;5108358;28;19923;-42
2021/06/08 11:47:52;;;;;;;;;;;26.10;90.40;;;;;;5108371;28;20223;-48
2021/06/08 11:50:38;;;;;;;;;;;26.10;90.50;;;;;;5107867;28;19974;-40
2021/06/08 11:53:05;;;;;;;;;;;26.10;90.60;;;;;;5107947;28;19959;-46
2021/06/08 11:55:32;;;;;;;;;;;26.10;90.50;;;;;;5107924;28;19900;-45
2021/06/08 11:58:00;;;;;;;;;;;26.10;90.50;;;;;;5108501;28;19908;-44
2021/06/08 12:00:44;;;;;;;;;;;26.10;90.50;;;;;;5107798;28;19900;-42
2021/06/08 12:03:30;;;;;;;;;;;26.10;90.40;;;;;;5108021;28;19948;-40
2021/06/08 12:05:57;;;;;;;;;;;26.10;90.30;;;;;;5107794;28;19900;-42
2021/06/08 12:08:23;;;;;;;;;;;26.10;90.40;;;;;;5107976;28;19908;-41
2021/06/08 12:10:50;;;;;;;;;;;26.10;90.50;;;;;;5107483;28;19900;-42
2021/06/08 12:13:22;;;;;;;;;;;26.10;90.70;;;;;;5107360;28;19912;-42
2021/06/08 12:15:51;;;;;;;;;;;26.10;90.90;;;;;;5107677;28;19971;-46
2021/06/08 12:18:23;;;;;;;;;;;26.10;91.00;;;;;;5108454;28;19908;-41
2021/06/08 12:20:50;;;;;;;;;;;26.20;91.10;;;;;;5106729;28;20073;-39
2021/06/08 12:23:29;;;;;;;;;;;26.20;91.20;;;;;;5108210;28;20111;-44
2021/06/08 12:26:08;;;;;;;;;;;26.20;91.20;;;;;;5107413;28;20215;-44
2021/06/08 12:28:34;;;;;;;;;;;26.10;91.40;;;;;;5107669;28;19907;-41
2021/06/08 12:31:17;;;;;;;;;;;26.10;91.70;;;;;;5107328;28;19924;-40
2021/06/08 12:33:43;;;;;;;;;;;26.10;91.80;;;;;;5107421;28;19912;-44
2021/06/08 12:36:10;;;;;;;;;;;26.10;92.00;;;;;;5107189;28;20188;-40
2021/06/08 12:38:44;;;;;;;;;;;26.20;92.00;;;;;;5107454;28;19971;-42
2021/06/08 12:41:11;;;;;;;;;;;26.20;92.10;;;;;;5089136;28;19900;-40
2021/06/08 12:43:47;;;;;;;;;;;26.10;92.20;;;;;;5107170;28;19949;-44
2021/06/08 12:46:23;;;;;;;;;;;26.10;92.30;;;;;;5106984;28;19938;-41
2021/06/08 12:49:00;;;;;;;;;;;26.20;92.30;;;;;;5048677;28;20241;-42
2021/06/08 12:51:31;;;;;;;;;;;26.20;92.20;;;;;;5066297;28;19947;-42
2021/06/08 12:53:57;;;;;;;;;;;26.20;92.30;;;;;;5065950;28;19967;-44
2021/06/08 12:56:23;;;;;;;;;;;26.10;92.30;;;;;;5088316;28;19947;-45
2021/06/08 12:58:50;;;;;;;;;;;26.20;92.50;;;;;;5094603;28;19939;-42
2021/06/08 13:01:16;;;;;;;;;;;26.20;92.50;;;;;;5094357;28;19963;-39
2021/06/08 13:03:45;;;;;;;;;;;26.20;92.70;;;;;;5095684;28;19900;-41
2021/06/08 13:06:12;;;;;;;;;;;26.20;92.90;;;;;;5096191;28;20131;-41
2021/06/08 13:08:41;;;;;;;;;;;26.20;93.00;;;;;;5091900;28;19900;-39
2021/06/08 13:11:20;;;;;;;;;;;26.10;93.10;;;;;;5094900;28;20070;-48
2021/06/08 13:13:47;;;;;;;;;;;26.10;93.10;;;;;;5094181;28;20193;-40
2021/06/08 13:16:31;;;;;;;;;;;26.20;93.30;;;;;;5094160;28;19901;-42
2021/06/08 13:19:17;;;;;;;;;;;26.20;93.40;;;;;;5091590;28;19942;-43
2021/06/08 13:21:44;;;;;;;;;;;26.20;93.40;;;;;;5078515;28;19915;-45
2021/06/08 13:24:17;;;;;;;;;;;26.20;93.30;;;;;;5096000;28;19908;-41
2021/06/08 13:26:45;;;;;;;;;;;26.20;93.20;;;;;;5093218;28;20164;-42
2021/06/08 13:29:17;;;;;;;;;;;26.20;93.00;;;;;;5094989;28;20096;-39
2021/06/08 13:31:44;;;;;;;;;;;26.20;93.00;;;;;;5095288;28;19915;-42
2021/06/08 13:34:18;;;;;;;;;;;26.20;93.20;;;;;;5093861;28;20196;-40
2021/06/08 13:36:45;;;;;;;;;;;26.30;93.10;;;;;;5093779;28;19922;-41
2021/06/08 13:39:13;;;;;;;;;;;26.30;93.00;;;;;;5093719;28;20189;-44
2021/06/08 13:41:40;;;;;;;;;;;26.30;93.10;;;;;;5094108;28;19915;-46
2021/06/08 13:44:13;;;;;;;;;;;26.30;92.90;;;;;;5095618;28;20084;-40
2021/06/08 13:46:40;;;;;;;;;;;26.40;92.60;;;;;;5095252;28;19932;-42
2021/06/08 13:49:06;;;;;;;;;;;26.40;92.40;;;;;;5093519;28;19906;-47
2021/06/08 13:51:33;;;;;;;;;;;26.50;92.40;;;;;;5094748;28;20180;-46
2021/06/08 13:54:14;;;;;;;;;;;26.50;92.40;;;;;;5094954;28;19943;-47
2021/06/08 14:01:58;;;;;;;;;;;26.60;91.60;;;;;;5093212;28;20246;-39
2021/06/08 14:04:25;;;;;;;;;;;26.70;91.20;;;;;;5093361;28;19908;-46
2021/06/08 14:06:52;;;;;;;;;;;26.80;91.20;;;;;;5094915;28;19923;-42
2021/06/08 14:09:19;;;;;;;;;;;26.90;91.10;;;;;;5094702;28;19936;-45
2021/06/08 14:11:47;;;;;;;;;;;26.90;91.20;;;;;;5092972;28;19908;-40
2021/06/08 14:14:15;;;;;;;;;;;26.90;91.10;;;;;;5094381;28;20276;-41
2021/06/08 14:16:42;;;;;;;;;;;27.00;90.90;;;;;;5092304;28;19979;-44
2021/06/08 14:19:09;;;;;;;;;;;27.00;90.70;;;;;;5066736;28;19943;-42
2021/06/08 14:21:36;;;;;;;;;;;27.00;90.40;;;;;;5090039;28;19964;-44
2021/06/08 14:24:03;;;;;;;;;;;27.00;90.40;;;;;;5077180;28;19912;-44
2021/06/08 14:26:31;;;;;;;;;;;27.10;90.70;;;;;;5102377;28;19908;-46
2021/06/08 14:28:58;;;;;;;;;;;27.20;90.90;;;;;;5104767;28;20104;-40
2021/06/08 14:31:26;;;;;;;;;;;27.20;90.80;;;;;;5104848;28;19908;-43